In Rescue
 
Open Full Screen Window  High Contrast Mode
Wind Gusting 00 knots
03
November 20, 2019 1:58 AM EST
Weather Information
Wind Direction
  280 °
Wind Speed
  03 kt (3 mph)
Wind Gust
  00 kt (0 mph)
Altimeter
30.02 in
Visibility
7 SM
Temperature
02° C
36° F
Dewpoint
00° C
32° F
Humidity
87%
1hr Rain Fall
00.00 in.
24hr Rain Fall
00.02 in.
Sky Condition
Overcast @ 1,100 ft
MVFR

METAR KLDM 200658Z AUTO 28003KT 7SM OVC011 02/00 A3002 RMK AO2 T00161001

FAA Disclaimer: The data displayed is for advisory purposes only and is not to be used for flight planning or operations.